sensor_id;sensor_type;location;lat;lon;timestamp;P1;durP1;ratioP1;P2;durP2;ratioP2
7142;SDS011;3613;48.902;9.204;2023-05-07T00:01:06;7.43;;;5.93;;
7142;SDS011;3613;48.902;9.204;2023-05-07T00:03:36;8.87;;;6.13;;
7142;SDS011;3613;48.902;9.204;2023-05-07T00:06:02;10.77;;;5.73;;
7142;SDS011;3613;48.902;9.204;2023-05-07T00:08:28;8.83;;;5.90;;
7142;SDS011;3613;48.902;9.204;2023-05-07T00:10:55;10.17;;;6.33;;
7142;SDS011;3613;48.902;9.204;2023-05-07T00:13:20;11.47;;;6.03;;
7142;SDS011;3613;48.902;9.204;2023-05-07T00:15:46;8.87;;;5.83;;
7142;SDS011;3613;48.902;9.204;2023-05-07T00:18:12;10.57;;;5.83;;
7142;SDS011;3613;48.902;9.204;2023-05-07T00:20:38;7.97;;;5.27;;
7142;SDS011;3613;48.902;9.204;2023-05-07T00:23:03;8.53;;;5.00;;
7142;SDS011;3613;48.902;9.204;2023-05-07T00:25:29;7.80;;;5.50;;
7142;SDS011;3613;48.902;9.204;2023-05-07T00:27:55;8.93;;;5.83;;
7142;SDS011;3613;48.902;9.204;2023-05-07T00:30:22;7.93;;;5.20;;
7142;SDS011;3613;48.902;9.204;2023-05-07T00:32:48;9.30;;;5.47;;
7142;SDS011;3613;48.902;9.204;2023-05-07T00:35:15;7.67;;;5.23;;
7142;SDS011;3613;48.902;9.204;2023-05-07T00:37:43;10.77;;;5.63;;
7142;SDS011;3613;48.902;9.204;2023-05-07T00:40:09;8.63;;;5.40;;
7142;SDS011;3613;48.902;9.204;2023-05-07T00:42:35;10.03;;;5.30;;
7142;SDS011;3613;48.902;9.204;2023-05-07T00:45:01;7.73;;;5.43;;
7142;SDS011;3613;48.902;9.204;2023-05-07T00:47:32;6.43;;;5.00;;
7142;SDS011;3613;48.902;9.204;2023-05-07T00:50:00;7.20;;;5.03;;
7142;SDS011;3613;48.902;9.204;2023-05-07T00:52:26;6.33;;;5.00;;
7142;SDS011;3613;48.902;9.204;2023-05-07T00:54:52;7.87;;;5.40;;
7142;SDS011;3613;48.902;9.204;2023-05-07T00:57:21;6.07;;;5.23;;
7142;SDS011;3613;48.902;9.204;2023-05-07T00:59:49;7.87;;;5.50;;
7142;SDS011;3613;48.902;9.204;2023-05-07T01:02:19;8.20;;;5.60;;
7142;SDS011;3613;48.902;9.204;2023-05-07T01:04:44;6.50;;;5.03;;
7142;SDS011;3613;48.902;9.204;2023-05-07T01:07:12;8.23;;;5.57;;
7142;SDS011;3613;48.902;9.204;2023-05-07T01:09:38;6.93;;;5.17;;
7142;SDS011;3613;48.902;9.204;2023-05-07T01:12:05;7.27;;;5.77;;
7142;SDS011;3613;48.902;9.204;2023-05-07T01:14:34;5.37;;;4.53;;
7142;SDS011;3613;48.902;9.204;2023-05-07T01:17:00;7.67;;;4.77;;
7142;SDS011;3613;48.902;9.204;2023-05-07T01:19:26;7.30;;;5.00;;
7142;SDS011;3613;48.902;9.204;2023-05-07T01:21:55;8.60;;;4.93;;
7142;SDS011;3613;48.902;9.204;2023-05-07T01:24:28;8.43;;;5.40;;
7142;SDS011;3613;48.902;9.204;2023-05-07T01:26:54;8.00;;;5.47;;
7142;SDS011;3613;48.902;9.204;2023-05-07T01:29:19;6.00;;;4.93;;
7142;SDS011;3613;48.902;9.204;2023-05-07T01:31:45;8.13;;;5.63;;
7142;SDS011;3613;48.902;9.204;2023-05-07T01:34:12;7.07;;;5.20;;
7142;SDS011;3613;48.902;9.204;2023-05-07T01:36:42;6.43;;;5.10;;
7142;SDS011;3613;48.902;9.204;2023-05-07T01:39:09;7.23;;;5.20;;
7142;SDS011;3613;48.902;9.204;2023-05-07T01:41:37;10.53;;;5.43;;
7142;SDS011;3613;48.902;9.204;2023-05-07T01:44:03;8.00;;;5.43;;
7142;SDS011;3613;48.902;9.204;2023-05-07T01:46:35;5.80;;;4.40;;
7142;SDS011;3613;48.902;9.204;2023-05-07T01:49:00;7.33;;;4.87;;
7142;SDS011;3613;48.902;9.204;2023-05-07T01:51:29;7.60;;;4.60;;
7142;SDS011;3613;48.902;9.204;2023-05-07T01:53:57;5.60;;;4.60;;
7142;SDS011;3613;48.902;9.204;2023-05-07T01:56:25;6.77;;;4.53;;
7142;SDS011;3613;48.902;9.204;2023-05-07T01:58:51;6.43;;;4.90;;
7142;SDS011;3613;48.902;9.204;2023-05-07T02:01:17;5.50;;;4.40;;
7142;SDS011;3613;48.902;9.204;2023-05-07T02:03:43;5.80;;;4.30;;
7142;SDS011;3613;48.902;9.204;2023-05-07T02:06:09;5.17;;;4.20;;
7142;SDS011;3613;48.902;9.204;2023-05-07T02:08:35;4.97;;;4.47;;
7142;SDS011;3613;48.902;9.204;2023-05-07T02:11:01;4.80;;;4.30;;
7142;SDS011;3613;48.902;9.204;2023-05-07T02:13:33;5.63;;;4.70;;
7142;SDS011;3613;48.902;9.204;2023-05-07T02:16:04;4.43;;;4.03;;
7142;SDS011;3613;48.902;9.204;2023-05-07T02:18:32;5.77;;;3.93;;
7142;SDS011;3613;48.902;9.204;2023-05-07T02:21:00;4.90;;;4.00;;
7142;SDS011;3613;48.902;9.204;2023-05-07T02:23:26;5.07;;;4.00;;
7142;SDS011;3613;48.902;9.204;2023-05-07T02:25:57;4.87;;;3.97;;
7142;SDS011;3613;48.902;9.204;2023-05-07T02:28:22;5.37;;;3.93;;
7142;SDS011;3613;48.902;9.204;2023-05-07T02:30:48;5.70;;;4.07;;
7142;SDS011;3613;48.902;9.204;2023-05-07T02:33:14;6.40;;;4.13;;
7142;SDS011;3613;48.902;9.204;2023-05-07T02:35:39;7.77;;;4.37;;
7142;SDS011;3613;48.902;9.204;2023-05-07T02:38:05;5.27;;;4.20;;
7142;SDS011;3613;48.902;9.204;2023-05-07T02:40:31;4.40;;;3.87;;
7142;SDS011;3613;48.902;9.204;2023-05-07T02:42:58;9.87;;;5.60;;
7142;SDS011;3613;48.902;9.204;2023-05-07T02:45:24;4.73;;;4.23;;
7142;SDS011;3613;48.902;9.204;2023-05-07T02:47:50;5.97;;;4.33;;
7142;SDS011;3613;48.902;9.204;2023-05-07T02:50:16;5.93;;;4.80;;
7142;SDS011;3613;48.902;9.204;2023-05-07T02:52:42;6.13;;;4.90;;
7142;SDS011;3613;48.902;9.204;2023-05-07T02:55:10;5.77;;;4.80;;
7142;SDS011;3613;48.902;9.204;2023-05-07T02:57:36;6.90;;;5.00;;
7142;SDS011;3613;48.902;9.204;2023-05-07T03:00:12;4.70;;;4.00;;
7142;SDS011;3613;48.902;9.204;2023-05-07T03:02:38;4.70;;;4.27;;
7142;SDS011;3613;48.902;9.204;2023-05-07T03:05:04;6.30;;;4.20;;
7142;SDS011;3613;48.902;9.204;2023-05-07T03:07:30;5.27;;;4.23;;
7142;SDS011;3613;48.902;9.204;2023-05-07T03:09:56;6.37;;;4.70;;
7142;SDS011;3613;48.902;9.204;2023-05-07T03:12:25;5.07;;;4.23;;
7142;SDS011;3613;48.902;9.204;2023-05-07T03:14:53;6.43;;;5.00;;
7142;SDS011;3613;48.902;9.204;2023-05-07T03:17:18;6.03;;;4.40;;
7142;SDS011;3613;48.902;9.204;2023-05-07T03:19:44;5.07;;;4.50;;
7142;SDS011;3613;48.902;9.204;2023-05-07T03:22:10;7.53;;;4.63;;
7142;SDS011;3613;48.902;9.204;2023-05-07T03:24:37;4.90;;;4.40;;
7142;SDS011;3613;48.902;9.204;2023-05-07T03:27:03;4.47;;;3.90;;
7142;SDS011;3613;48.902;9.204;2023-05-07T03:29:29;6.83;;;4.43;;
7142;SDS011;3613;48.902;9.204;2023-05-07T03:31:55;5.83;;;4.50;;
7142;SDS011;3613;48.902;9.204;2023-05-07T03:34:21;7.27;;;4.40;;
7142;SDS011;3613;48.902;9.204;2023-05-07T03:36:47;5.67;;;4.70;;
7142;SDS011;3613;48.902;9.204;2023-05-07T03:39:13;6.10;;;5.00;;
7142;SDS011;3613;48.902;9.204;2023-05-07T03:41:39;6.53;;;4.50;;
7142;SDS011;3613;48.902;9.204;2023-05-07T03:44:07;5.77;;;4.83;;
7142;SDS011;3613;48.902;9.204;2023-05-07T03:46:33;7.07;;;4.87;;
7142;SDS011;3613;48.902;9.204;2023-05-07T03:49:01;6.97;;;5.47;;
7142;SDS011;3613;48.902;9.204;2023-05-07T03:51:27;5.90;;;5.20;;
7142;SDS011;3613;48.902;9.204;2023-05-07T03:53:53;7.40;;;4.47;;
7142;SDS011;3613;48.902;9.204;2023-05-07T03:56:22;7.10;;;5.00;;
7142;SDS011;3613;48.902;9.204;2023-05-07T03:58:51;5.97;;;4.33;;
7142;SDS011;3613;48.902;9.204;2023-05-07T04:01:17;6.20;;;4.63;;
7142;SDS011;3613;48.902;9.204;2023-05-07T04:03:43;7.30;;;5.33;;
7142;SDS011;3613;48.902;9.204;2023-05-07T04:06:09;6.93;;;5.10;;
7142;SDS011;3613;48.902;9.204;2023-05-07T04:08:35;6.13;;;5.10;;
7142;SDS011;3613;48.902;9.204;2023-05-07T04:11:01;5.80;;;4.60;;
7142;SDS011;3613;48.902;9.204;2023-05-07T04:13:27;9.67;;;5.13;;
7142;SDS011;3613;48.902;9.204;2023-05-07T04:15:55;6.83;;;4.97;;
7142;SDS011;3613;48.902;9.204;2023-05-07T04:18:21;5.93;;;5.20;;
7142;SDS011;3613;48.902;9.204;2023-05-07T04:20:49;6.00;;;5.10;;
7142;SDS011;3613;48.902;9.204;2023-05-07T04:23:15;10.23;;;4.90;;
7142;SDS011;3613;48.902;9.204;2023-05-07T04:25:41;6.13;;;4.77;;
7142;SDS011;3613;48.902;9.204;2023-05-07T04:28:07;6.53;;;5.83;;
7142;SDS011;3613;48.902;9.204;2023-05-07T04:30:32;5.93;;;4.80;;
7142;SDS011;3613;48.902;9.204;2023-05-07T04:32:58;7.63;;;5.40;;
7142;SDS011;3613;48.902;9.204;2023-05-07T04:35:24;6.27;;;5.03;;
7142;SDS011;3613;48.902;9.204;2023-05-07T04:37:50;6.50;;;5.40;;
7142;SDS011;3613;48.902;9.204;2023-05-07T04:40:16;7.20;;;5.30;;
7142;SDS011;3613;48.902;9.204;2023-05-07T04:42:41;6.33;;;4.70;;
7142;SDS011;3613;48.902;9.204;2023-05-07T04:45:07;5.63;;;4.87;;
7142;SDS011;3613;48.902;9.204;2023-05-07T04:47:35;5.37;;;4.80;;
7142;SDS011;3613;48.902;9.204;2023-05-07T04:50:01;6.30;;;4.57;;
7142;SDS011;3613;48.902;9.204;2023-05-07T04:52:29;6.00;;;4.27;;
7142;SDS011;3613;48.902;9.204;2023-05-07T04:54:56;4.43;;;4.03;;
7142;SDS011;3613;48.902;9.204;2023-05-07T04:57:22;4.17;;;3.77;;
7142;SDS011;3613;48.902;9.204;2023-05-07T04:59:47;3.83;;;3.37;;
7142;SDS011;3613;48.902;9.204;2023-05-07T05:02:14;5.20;;;3.80;;
7142;SDS011;3613;48.902;9.204;2023-05-07T05:04:39;4.07;;;3.30;;
7142;SDS011;3613;48.902;9.204;2023-05-07T05:07:05;6.13;;;3.80;;
7142;SDS011;3613;48.902;9.204;2023-05-07T05:09:31;4.53;;;3.70;;
7142;SDS011;3613;48.902;9.204;2023-05-07T05:11:57;5.47;;;3.73;;
7142;SDS011;3613;48.902;9.204;2023-05-07T05:14:23;4.17;;;3.43;;
7142;SDS011;3613;48.902;9.204;2023-05-07T05:16:49;3.83;;;3.50;;
7142;SDS011;3613;48.902;9.204;2023-05-07T05:19:17;4.03;;;3.30;;
7142;SDS011;3613;48.902;9.204;2023-05-07T05:21:45;5.20;;;4.03;;
7142;SDS011;3613;48.902;9.204;2023-05-07T05:24:11;5.00;;;4.00;;
7142;SDS011;3613;48.902;9.204;2023-05-07T05:26:37;4.10;;;3.47;;
7142;SDS011;3613;48.902;9.204;2023-05-07T05:29:03;3.93;;;3.47;;
7142;SDS011;3613;48.902;9.204;2023-05-07T05:31:31;4.27;;;3.67;;
7142;SDS011;3613;48.902;9.204;2023-05-07T05:33:57;5.40;;;3.60;;
7142;SDS011;3613;48.902;9.204;2023-05-07T05:36:25;4.87;;;3.90;;
7142;SDS011;3613;48.902;9.204;2023-05-07T05:38:50;5.80;;;3.80;;
7142;SDS011;3613;48.902;9.204;2023-05-07T05:41:16;4.10;;;3.23;;
7142;SDS011;3613;48.902;9.204;2023-05-07T05:43:42;4.00;;;3.30;;
7142;SDS011;3613;48.902;9.204;2023-05-07T05:46:08;4.00;;;3.20;;
7142;SDS011;3613;48.902;9.204;2023-05-07T05:48:36;3.43;;;3.10;;
7142;SDS011;3613;48.902;9.204;2023-05-07T05:51:02;3.30;;;3.00;;
7142;SDS011;3613;48.902;9.204;2023-05-07T05:53:27;3.77;;;3.33;;
7142;SDS011;3613;48.902;9.204;2023-05-07T05:55:53;3.60;;;3.30;;
7142;SDS011;3613;48.902;9.204;2023-05-07T05:58:19;3.13;;;2.83;;
7142;SDS011;3613;48.902;9.204;2023-05-07T06:00:45;3.57;;;3.27;;
7142;SDS011;3613;48.902;9.204;2023-05-07T06:03:11;5.03;;;3.67;;
7142;SDS011;3613;48.902;9.204;2023-05-07T06:05:37;3.50;;;3.10;;
7142;SDS011;3613;48.902;9.204;2023-05-07T06:08:03;3.63;;;2.90;;
7142;SDS011;3613;48.902;9.204;2023-05-07T06:10:29;3.60;;;3.30;;
7142;SDS011;3613;48.902;9.204;2023-05-07T06:12:55;4.50;;;2.60;;
7142;SDS011;3613;48.902;9.204;2023-05-07T06:15:21;3.33;;;2.33;;
7142;SDS011;3613;48.902;9.204;2023-05-07T06:17:46;4.17;;;2.93;;
7142;SDS011;3613;48.902;9.204;2023-05-07T06:20:13;3.20;;;2.73;;
7142;SDS011;3613;48.902;9.204;2023-05-07T06:22:39;2.57;;;2.37;;
7142;SDS011;3613;48.902;9.204;2023-05-07T06:25:05;2.90;;;2.60;;
7142;SDS011;3613;48.902;9.204;2023-05-07T06:27:31;5.10;;;2.50;;
7142;SDS011;3613;48.902;9.204;2023-05-07T06:29:59;3.20;;;2.40;;
7142;SDS011;3613;48.902;9.204;2023-05-07T06:32:27;3.23;;;2.90;;
7142;SDS011;3613;48.902;9.204;2023-05-07T06:34:53;3.90;;;3.00;;
7142;SDS011;3613;48.902;9.204;2023-05-07T06:37:21;3.37;;;2.80;;
7142;SDS011;3613;48.902;9.204;2023-05-07T06:39:49;7.27;;;3.43;;
7142;SDS011;3613;48.902;9.204;2023-05-07T06:42:15;2.50;;;2.30;;
7142;SDS011;3613;48.902;9.204;2023-05-07T06:44:41;3.80;;;2.20;;
7142;SDS011;3613;48.902;9.204;2023-05-07T06:47:07;3.37;;;2.80;;
7142;SDS011;3613;48.902;9.204;2023-05-07T06:49:33;2.60;;;2.30;;
7142;SDS011;3613;48.902;9.204;2023-05-07T06:51:59;5.03;;;2.37;;
7142;SDS011;3613;48.902;9.204;2023-05-07T06:54:27;2.73;;;2.53;;
7142;SDS011;3613;48.902;9.204;2023-05-07T06:56:53;2.80;;;2.50;;
7142;SDS011;3613;48.902;9.204;2023-05-07T06:59:18;2.50;;;2.10;;
7142;SDS011;3613;48.902;9.204;2023-05-07T07:01:44;2.60;;;2.40;;
7142;SDS011;3613;48.902;9.204;2023-05-07T07:04:10;2.70;;;2.20;;
7142;SDS011;3613;48.902;9.204;2023-05-07T07:06:38;2.43;;;2.10;;
7142;SDS011;3613;48.902;9.204;2023-05-07T07:09:04;2.60;;;2.23;;
7142;SDS011;3613;48.902;9.204;2023-05-07T07:11:30;2.40;;;2.20;;
7142;SDS011;3613;48.902;9.204;2023-05-07T07:13:55;2.60;;;2.30;;
7142;SDS011;3613;48.902;9.204;2023-05-07T07:16:21;3.00;;;2.30;;
7142;SDS011;3613;48.902;9.204;2023-05-07T07:18:47;3.23;;;2.30;;
7142;SDS011;3613;48.902;9.204;2023-05-07T07:21:13;2.80;;;2.43;;
7142;SDS011;3613;48.902;9.204;2023-05-07T07:23:38;2.57;;;2.37;;
7142;SDS011;3613;48.902;9.204;2023-05-07T07:26:05;2.87;;;2.33;;
7142;SDS011;3613;48.902;9.204;2023-05-07T07:28:31;3.20;;;2.90;;
7142;SDS011;3613;48.902;9.204;2023-05-07T07:31:00;3.83;;;2.40;;
7142;SDS011;3613;48.902;9.204;2023-05-07T07:33:28;4.60;;;2.70;;
7142;SDS011;3613;48.902;9.204;2023-05-07T07:35:55;2.63;;;2.33;;
7142;SDS011;3613;48.902;9.204;2023-05-07T07:38:22;2.60;;;2.30;;
7142;SDS011;3613;48.902;9.204;2023-05-07T07:40:48;3.60;;;2.70;;
7142;SDS011;3613;48.902;9.204;2023-05-07T07:43:14;2.50;;;2.30;;
7142;SDS011;3613;48.902;9.204;2023-05-07T07:45:43;3.27;;;2.50;;
7142;SDS011;3613;48.902;9.204;2023-05-07T07:48:08;3.00;;;2.70;;
7142;SDS011;3613;48.902;9.204;2023-05-07T07:50:34;3.30;;;2.70;;
7142;SDS011;3613;48.902;9.204;2023-05-07T07:53:00;4.00;;;2.87;;
7142;SDS011;3613;48.902;9.204;2023-05-07T07:55:29;2.70;;;2.50;;
7142;SDS011;3613;48.902;9.204;2023-05-07T07:57:56;3.23;;;2.20;;
7142;SDS011;3613;48.902;9.204;2023-05-07T08:00:22;4.27;;;2.50;;
7142;SDS011;3613;48.902;9.204;2023-05-07T08:02:48;3.50;;;2.27;;
7142;SDS011;3613;48.902;9.204;2023-05-07T08:05:13;3.77;;;2.50;;
7142;SDS011;3613;48.902;9.204;2023-05-07T08:07:40;3.00;;;2.60;;
7142;SDS011;3613;48.902;9.204;2023-05-07T08:10:06;3.03;;;2.77;;
7142;SDS011;3613;48.902;9.204;2023-05-07T08:12:32;3.27;;;2.73;;
7142;SDS011;3613;48.902;9.204;2023-05-07T08:14:58;3.83;;;2.40;;
7142;SDS011;3613;48.902;9.204;2023-05-07T08:17:26;3.40;;;2.57;;
7142;SDS011;3613;48.902;9.204;2023-05-07T08:19:52;3.57;;;3.00;;
7142;SDS011;3613;48.902;9.204;2023-05-07T08:22:17;3.40;;;3.10;;
7142;SDS011;3613;48.902;9.204;2023-05-07T08:24:46;2.47;;;2.27;;
7142;SDS011;3613;48.902;9.204;2023-05-07T08:27:12;3.00;;;2.60;;
7142;SDS011;3613;48.902;9.204;2023-05-07T08:29:41;3.00;;;2.60;;
7142;SDS011;3613;48.902;9.204;2023-05-07T08:32:07;4.67;;;2.97;;
7142;SDS011;3613;48.902;9.204;2023-05-07T08:34:33;3.37;;;2.73;;
7142;SDS011;3613;48.902;9.204;2023-05-07T08:37:01;3.13;;;2.57;;
7142;SDS011;3613;48.902;9.204;2023-05-07T08:39:27;2.93;;;2.63;;
7142;SDS011;3613;48.902;9.204;2023-05-07T08:41:55;3.73;;;2.87;;
7142;SDS011;3613;48.902;9.204;2023-05-07T08:44:22;3.17;;;2.87;;
7142;SDS011;3613;48.902;9.204;2023-05-07T08:46:51;4.53;;;2.53;;
7142;SDS011;3613;48.902;9.204;2023-05-07T08:49:18;3.47;;;2.90;;
7142;SDS011;3613;48.902;9.204;2023-05-07T08:51:47;3.20;;;2.90;;
7142;SDS011;3613;48.902;9.204;2023-05-07T08:54:16;4.03;;;2.53;;
7142;SDS011;3613;48.902;9.204;2023-05-07T08:56:42;5.03;;;2.80;;
7142;SDS011;3613;48.902;9.204;2023-05-07T08:59:08;3.13;;;2.83;;
7142;SDS011;3613;48.902;9.204;2023-05-07T09:01:34;5.03;;;2.57;;
7142;SDS011;3613;48.902;9.204;2023-05-07T09:04:00;2.93;;;2.60;;
7142;SDS011;3613;48.902;9.204;2023-05-07T09:06:27;2.50;;;2.30;;
7142;SDS011;3613;48.902;9.204;2023-05-07T09:08:53;3.57;;;2.57;;
7142;SDS011;3613;48.902;9.204;2023-05-07T09:11:23;3.00;;;2.60;;
7142;SDS011;3613;48.902;9.204;2023-05-07T09:13:53;3.60;;;2.80;;
7142;SDS011;3613;48.902;9.204;2023-05-07T09:16:21;3.37;;;2.80;;
7142;SDS011;3613;48.902;9.204;2023-05-07T09:18:53;4.07;;;3.10;;
7142;SDS011;3613;48.902;9.204;2023-05-07T09:21:24;3.03;;;2.73;;
7142;SDS011;3613;48.902;9.204;2023-05-07T09:23:51;5.17;;;2.90;;
7142;SDS011;3613;48.902;9.204;2023-05-07T09:26:17;4.10;;;2.70;;
7142;SDS011;3613;48.902;9.204;2023-05-07T09:28:50;2.63;;;2.43;;
7142;SDS011;3613;48.902;9.204;2023-05-07T09:31:17;4.20;;;2.80;;
7142;SDS011;3613;48.902;9.204;2023-05-07T09:33:42;3.63;;;2.60;;
7142;SDS011;3613;48.902;9.204;2023-05-07T09:36:08;3.07;;;2.47;;
7142;SDS011;3613;48.902;9.204;2023-05-07T09:38:35;2.63;;;2.40;;
7142;SDS011;3613;48.902;9.204;2023-05-07T09:41:02;3.20;;;2.90;;
7142;SDS011;3613;48.902;9.204;2023-05-07T09:43:31;3.10;;;2.80;;
7142;SDS011;3613;48.902;9.204;2023-05-07T09:45:58;5.47;;;2.70;;
7142;SDS011;3613;48.902;9.204;2023-05-07T09:48:42;3.03;;;2.73;;
7142;SDS011;3613;48.902;9.204;2023-05-07T09:51:21;2.93;;;2.47;;
7142;SDS011;3613;48.902;9.204;2023-05-07T09:53:54;3.13;;;2.47;;
7142;SDS011;3613;48.902;9.204;2023-05-07T09:56:20;4.93;;;3.37;;
7142;SDS011;3613;48.902;9.204;2023-05-07T09:58:46;4.23;;;2.83;;
7142;SDS011;3613;48.902;9.204;2023-05-07T10:01:12;3.30;;;2.47;;
7142;SDS011;3613;48.902;9.204;2023-05-07T10:03:39;3.23;;;2.50;;
7142;SDS011;3613;48.902;9.204;2023-05-07T10:06:09;4.27;;;2.50;;
7142;SDS011;3613;48.902;9.204;2023-05-07T10:08:36;2.80;;;2.30;;
7142;SDS011;3613;48.902;9.204;2023-05-07T10:11:03;2.87;;;2.60;;
7142;SDS011;3613;48.902;9.204;2023-05-07T10:13:33;3.10;;;2.60;;
7142;SDS011;3613;48.902;9.204;2023-05-07T10:16:03;3.93;;;2.57;;
7142;SDS011;3613;48.902;9.204;2023-05-07T10:18:33;3.30;;;2.63;;
7142;SDS011;3613;48.902;9.204;2023-05-07T10:21:04;3.20;;;2.70;;
7142;SDS011;3613;48.902;9.204;2023-05-07T10:23:43;3.87;;;2.90;;
7142;SDS011;3613;48.902;9.204;2023-05-07T10:26:14;5.47;;;2.53;;
7142;SDS011;3613;48.902;9.204;2023-05-07T10:28:44;3.23;;;2.50;;
7142;SDS011;3613;48.902;9.204;2023-05-07T10:33:51;4.27;;;2.50;;
7142;SDS011;3613;48.902;9.204;2023-05-07T10:36:20;3.50;;;2.60;;
7142;SDS011;3613;48.902;9.204;2023-05-07T10:38:47;3.87;;;2.40;;
7142;SDS011;3613;48.902;9.204;2023-05-07T10:41:15;3.17;;;2.50;;
7142;SDS011;3613;48.902;9.204;2023-05-07T10:43:44;4.40;;;2.63;;
7142;SDS011;3613;48.902;9.204;2023-05-07T10:51:36;3.67;;;2.80;;
7142;SDS011;3613;48.902;9.204;2023-05-07T10:56:40;2.83;;;2.50;;
7142;SDS011;3613;48.902;9.204;2023-05-07T11:02:04;3.53;;;2.73;;
7142;SDS011;3613;48.902;9.204;2023-05-07T11:04:32;2.97;;;2.70;;
7142;SDS011;3613;48.902;9.204;2023-05-07T11:15:01;2.20;;;2.00;;
7142;SDS011;3613;48.902;9.204;2023-05-07T11:17:31;2.90;;;2.30;;
7142;SDS011;3613;48.902;9.204;2023-05-07T11:20:03;4.73;;;2.30;;
7142;SDS011;3613;48.902;9.204;2023-05-07T11:25:03;3.17;;;2.63;;
7142;SDS011;3613;48.902;9.204;2023-05-07T11:27:33;2.40;;;2.20;;
7142;SDS011;3613;48.902;9.204;2023-05-07T11:29:59;3.73;;;2.40;;
7142;SDS011;3613;48.902;9.204;2023-05-07T11:32:30;2.40;;;2.20;;
7142;SDS011;3613;48.902;9.204;2023-05-07T11:34:59;2.67;;;2.47;;
7142;SDS011;3613;48.902;9.204;2023-05-07T11:37:26;2.30;;;2.00;;
7142;SDS011;3613;48.902;9.204;2023-05-07T11:40:04;2.87;;;2.40;;
7142;SDS011;3613;48.902;9.204;2023-05-07T11:42:33;2.60;;;2.37;;
7142;SDS011;3613;48.902;9.204;2023-05-07T11:45:03;2.90;;;2.67;;
7142;SDS011;3613;48.902;9.204;2023-05-07T11:47:33;3.13;;;2.83;;
7142;SDS011;3613;48.902;9.204;2023-05-07T11:50:03;3.63;;;2.30;;
7142;SDS011;3613;48.902;9.204;2023-05-07T11:52:30;3.13;;;2.30;;
7142;SDS011;3613;48.902;9.204;2023-05-07T11:54:59;3.50;;;2.30;;
7142;SDS011;3613;48.902;9.204;2023-05-07T11:57:25;2.63;;;2.23;;
7142;SDS011;3613;48.902;9.204;2023-05-07T12:02:24;2.57;;;2.20;;
7142;SDS011;3613;48.902;9.204;2023-05-07T12:04:51;5.87;;;3.50;;
7142;SDS011;3613;48.902;9.204;2023-05-07T12:07:19;3.03;;;2.10;;
7142;SDS011;3613;48.902;9.204;2023-05-07T12:09:45;3.97;;;2.93;;
7142;SDS011;3613;48.902;9.204;2023-05-07T12:12:12;2.63;;;2.43;;
7142;SDS011;3613;48.902;9.204;2023-05-07T12:14:43;1.90;;;1.80;;
7142;SDS011;3613;48.902;9.204;2023-05-07T12:17:11;3.47;;;2.10;;
7142;SDS011;3613;48.902;9.204;2023-05-07T12:19:39;3.27;;;2.60;;
7142;SDS011;3613;48.902;9.204;2023-05-07T12:22:09;3.40;;;2.27;;
7142;SDS011;3613;48.902;9.204;2023-05-07T12:24:42;2.30;;;2.10;;
7142;SDS011;3613;48.902;9.204;2023-05-07T12:27:09;2.53;;;2.00;;
7142;SDS011;3613;48.902;9.204;2023-05-07T12:29:35;3.83;;;2.17;;
7142;SDS011;3613;48.902;9.204;2023-05-07T12:32:03;5.03;;;2.13;;
7142;SDS011;3613;48.902;9.204;2023-05-07T12:34:31;3.17;;;2.73;;
7142;SDS011;3613;48.902;9.204;2023-05-07T12:36:59;3.23;;;1.90;;
7142;SDS011;3613;48.902;9.204;2023-05-07T12:39:28;4.07;;;2.57;;
7142;SDS011;3613;48.902;9.204;2023-05-07T12:41:54;4.10;;;2.40;;
7142;SDS011;3613;48.902;9.204;2023-05-07T12:44:28;2.43;;;2.20;;
7142;SDS011;3613;48.902;9.204;2023-05-07T12:46:55;3.27;;;2.10;;
7142;SDS011;3613;48.902;9.204;2023-05-07T12:49:22;3.03;;;2.37;;
7142;SDS011;3613;48.902;9.204;2023-05-07T12:51:49;2.83;;;2.00;;
7142;SDS011;3613;48.902;9.204;2023-05-07T12:54:34;2.40;;;1.90;;
7142;SDS011;3613;48.902;9.204;2023-05-07T12:57:05;3.30;;;2.00;;
7142;SDS011;3613;48.902;9.204;2023-05-07T13:01:58;2.73;;;2.10;;
7142;SDS011;3613;48.902;9.204;2023-05-07T13:04:24;3.60;;;2.13;;
7142;SDS011;3613;48.902;9.204;2023-05-07T13:06:51;3.87;;;1.83;;
7142;SDS011;3613;48.902;9.204;2023-05-07T13:09:17;3.07;;;2.40;;
7142;SDS011;3613;48.902;9.204;2023-05-07T13:11:43;3.30;;;2.53;;
7142;SDS011;3613;48.902;9.204;2023-05-07T13:14:08;3.20;;;2.70;;
7142;SDS011;3613;48.902;9.204;2023-05-07T13:16:37;3.53;;;2.80;;
7142;SDS011;3613;48.902;9.204;2023-05-07T13:19:02;3.87;;;2.90;;
7142;SDS011;3613;48.902;9.204;2023-05-07T13:21:29;3.97;;;2.60;;
7142;SDS011;3613;48.902;9.204;2023-05-07T13:23:56;4.47;;;2.70;;
7142;SDS011;3613;48.902;9.204;2023-05-07T13:26:23;5.07;;;3.00;;
7142;SDS011;3613;48.902;9.204;2023-05-07T13:28:49;5.77;;;2.47;;
7142;SDS011;3613;48.902;9.204;2023-05-07T13:31:16;3.03;;;2.50;;
7142;SDS011;3613;48.902;9.204;2023-05-07T13:33:42;3.13;;;2.20;;
7142;SDS011;3613;48.902;9.204;2023-05-07T13:36:08;3.03;;;2.00;;
7142;SDS011;3613;48.902;9.204;2023-05-07T13:38:34;4.27;;;2.57;;
7142;SDS011;3613;48.902;9.204;2023-05-07T13:41:00;2.67;;;2.10;;
7142;SDS011;3613;48.902;9.204;2023-05-07T13:43:28;2.10;;;1.80;;
7142;SDS011;3613;48.902;9.204;2023-05-07T13:45:53;2.13;;;1.70;;
7142;SDS011;3613;48.902;9.204;2023-05-07T13:48:19;2.30;;;1.60;;
7142;SDS011;3613;48.902;9.204;2023-05-07T13:50:45;2.73;;;1.77;;
7142;SDS011;3613;48.902;9.204;2023-05-07T13:53:13;1.90;;;1.53;;
7142;SDS011;3613;48.902;9.204;2023-05-07T13:55:42;2.50;;;1.50;;
7142;SDS011;3613;48.902;9.204;2023-05-07T13:58:08;1.63;;;1.33;;
7142;SDS011;3613;48.902;9.204;2023-05-07T14:00:34;2.70;;;1.30;;
7142;SDS011;3613;48.902;9.204;2023-05-07T14:03:00;3.70;;;2.07;;
7142;SDS011;3613;48.902;9.204;2023-05-07T14:05:29;1.83;;;1.50;;
7142;SDS011;3613;48.902;9.204;2023-05-07T14:07:57;1.77;;;1.47;;
7142;SDS011;3613;48.902;9.204;2023-05-07T14:10:23;2.47;;;1.63;;
7142;SDS011;3613;48.902;9.204;2023-05-07T14:12:52;2.37;;;1.30;;
7142;SDS011;3613;48.902;9.204;2023-05-07T14:15:20;1.73;;;1.13;;
7142;SDS011;3613;48.902;9.204;2023-05-07T14:17:48;1.43;;;1.20;;
7142;SDS011;3613;48.902;9.204;2023-05-07T14:20:14;1.90;;;1.07;;
7142;SDS011;3613;48.902;9.204;2023-05-07T14:22:40;2.77;;;1.20;;
7142;SDS011;3613;48.902;9.204;2023-05-07T14:25:13;1.53;;;1.10;;
7142;SDS011;3613;48.902;9.204;2023-05-07T14:27:38;3.20;;;1.50;;
7142;SDS011;3613;48.902;9.204;2023-05-07T14:30:04;2.97;;;1.70;;
7142;SDS011;3613;48.902;9.204;2023-05-07T14:32:30;2.23;;;1.80;;
7142;SDS011;3613;48.902;9.204;2023-05-07T14:34:56;9.87;;;7.37;;
7142;SDS011;3613;48.902;9.204;2023-05-07T14:37:27;4.30;;;2.50;;
7142;SDS011;3613;48.902;9.204;2023-05-07T14:39:53;2.83;;;2.13;;
7142;SDS011;3613;48.902;9.204;2023-05-07T14:42:19;4.00;;;2.60;;
7142;SDS011;3613;48.902;9.204;2023-05-07T14:44:45;2.90;;;2.10;;
7142;SDS011;3613;48.902;9.204;2023-05-07T14:47:13;3.93;;;2.27;;
7142;SDS011;3613;48.902;9.204;2023-05-07T14:49:40;5.10;;;2.20;;
7142;SDS011;3613;48.902;9.204;2023-05-07T14:52:07;3.43;;;2.03;;
7142;SDS011;3613;48.902;9.204;2023-05-07T14:54:34;2.20;;;1.90;;
7142;SDS011;3613;48.902;9.204;2023-05-07T14:57:04;3.10;;;2.13;;
7142;SDS011;3613;48.902;9.204;2023-05-07T14:59:30;4.73;;;2.57;;
7142;SDS011;3613;48.902;9.204;2023-05-07T15:01:57;3.17;;;2.27;;
7142;SDS011;3613;48.902;9.204;2023-05-07T15:04:23;3.00;;;2.40;;
7142;SDS011;3613;48.902;9.204;2023-05-07T15:06:49;3.43;;;2.27;;
7142;SDS011;3613;48.902;9.204;2023-05-07T15:09:17;3.63;;;3.17;;
7142;SDS011;3613;48.902;9.204;2023-05-07T15:11:43;3.13;;;2.80;;
7142;SDS011;3613;48.902;9.204;2023-05-07T15:14:11;4.20;;;3.00;;
7142;SDS011;3613;48.902;9.204;2023-05-07T15:16:39;4.30;;;2.70;;
7142;SDS011;3613;48.902;9.204;2023-05-07T15:19:05;3.80;;;3.10;;
7142;SDS011;3613;48.902;9.204;2023-05-07T15:21:32;5.87;;;3.13;;
7142;SDS011;3613;48.902;9.204;2023-05-07T15:23:59;3.33;;;3.00;;
7142;SDS011;3613;48.902;9.204;2023-05-07T15:26:26;5.73;;;3.37;;
7142;SDS011;3613;48.902;9.204;2023-05-07T15:28:54;5.33;;;3.47;;
7142;SDS011;3613;48.902;9.204;2023-05-07T15:31:22;4.33;;;3.30;;
7142;SDS011;3613;48.902;9.204;2023-05-07T15:33:48;4.80;;;3.00;;
7142;SDS011;3613;48.902;9.204;2023-05-07T15:36:17;3.53;;;3.10;;
7142;SDS011;3613;48.902;9.204;2023-05-07T15:38:45;3.83;;;3.43;;
7142;SDS011;3613;48.902;9.204;2023-05-07T15:41:13;7.03;;;3.60;;
7142;SDS011;3613;48.902;9.204;2023-05-07T15:43:43;4.97;;;3.30;;